Time;durP1;ratioP1;P1;durP2;ratioP2;P2;SDS_P1;SDS_P2;PMS_P1;PMS_P2;Temp;Humidity;BMP_temperature;BMP_pressure;BME280_temperature;BME280_humidity;BME280_pressure;Samples;Min_cycle;Max_cycle;Signal;HPM_P1;HPM_P2
2022/03/01 00:01:54;;;;;;;8.53;4.63;;;4.70;58.70;;;;;;5034516;28;20122;-86
2022/03/01 00:04:21;;;;;;;7.82;4.53;;;4.60;58.80;;;;;;5046052;28;20033;-86
2022/03/01 00:06:46;;;;;;;8.93;4.88;;;4.50;58.80;;;;;;5037311;28;20032;-86
2022/03/01 00:09:12;;;;;;;8.67;4.80;;;4.50;58.90;;;;;;5039135;28;20703;-86
2022/03/01 00:11:38;;;;;;;8.45;4.80;;;4.50;58.90;;;;;;5030271;28;20040;-86
2022/03/01 00:14:05;;;;;;;8.05;4.57;;;4.50;59.00;;;;;;5022931;28;20025;-86
2022/03/01 00:16:31;;;;;;;8.80;4.53;;;4.40;58.90;;;;;;5036693;28;20091;-86
2022/03/01 00:19:00;;;;;;;7.57;4.57;;;4.40;59.00;;;;;;5058219;28;20021;-86
2022/03/01 00:21:28;;;;;;;7.32;4.43;;;4.30;59.20;;;;;;5046272;28;20321;-86
2022/03/01 00:23:53;;;;;;;8.73;4.43;;;4.30;59.40;;;;;;5050021;28;20085;-86
2022/03/01 00:26:19;;;;;;;8.93;4.70;;;4.30;59.50;;;;;;5033327;28;20036;-86
2022/03/01 00:28:45;;;;;;;8.00;4.53;;;4.30;59.60;;;;;;5042647;28;20028;-86
2022/03/01 00:31:11;;;;;;;8.07;4.83;;;4.30;59.60;;;;;;5025128;28;20238;-86
2022/03/01 00:33:36;;;;;;;8.50;4.80;;;4.30;59.70;;;;;;5073505;28;20027;-86
2022/03/01 00:36:02;;;;;;;8.00;4.50;;;4.30;59.70;;;;;;5074151;28;20532;-86
2022/03/01 00:38:28;;;;;;;7.60;4.32;;;4.30;59.70;;;;;;5052332;28;20324;-86
2022/03/01 00:40:55;;;;;;;8.90;4.47;;;4.30;59.90;;;;;;5029401;28;20024;-86
2022/03/01 00:43:21;;;;;;;9.95;4.13;;;4.20;59.90;;;;;;5033256;28;20123;-86
2022/03/01 00:45:48;;;;;;;7.18;4.35;;;4.30;60.00;;;;;;5043590;28;20040;-86
2022/03/01 00:48:14;;;;;;;8.17;4.37;;;4.20;60.00;;;;;;5036382;28;20737;-86
2022/03/01 00:50:40;;;;;;;8.98;4.68;;;4.30;60.20;;;;;;5041323;28;20024;-86
2022/03/01 00:53:06;;;;;;;6.73;3.93;;;4.20;60.20;;;;;;5039128;28;20026;-86
2022/03/01 00:55:32;;;;;;;7.18;4.30;;;4.20;60.40;;;;;;5036161;28;20020;-86
2022/03/01 00:57:58;;;;;;;9.27;4.47;;;4.30;60.50;;;;;;5051564;28;20070;-86
2022/03/01 01:00:23;;;;;;;8.25;4.60;;;4.30;60.50;;;;;;5020121;28;20571;-86
2022/03/01 01:02:49;;;;;;;8.17;4.47;;;4.30;60.70;;;;;;5036082;28;20255;-86
2022/03/01 01:05:15;;;;;;;8.55;4.68;;;4.30;60.70;;;;;;5035694;28;20115;-86
2022/03/01 01:07:41;;;;;;;9.23;4.67;;;4.30;60.70;;;;;;5047847;28;20052;-86
2022/03/01 01:10:08;;;;;;;7.70;4.25;;;4.30;60.90;;;;;;5030672;28;20374;-86
2022/03/01 01:12:34;;;;;;;8.35;4.60;;;4.30;61.00;;;;;;5036274;28;20038;-86
2022/03/01 01:15:00;;;;;;;7.63;4.20;;;4.30;61.00;;;;;;5048271;28;20104;-86
2022/03/01 01:17:26;;;;;;;7.70;3.92;;;4.40;61.10;;;;;;5042650;28;20304;-86
2022/03/01 01:19:52;;;;;;;8.63;4.35;;;4.40;61.20;;;;;;5041619;28;20500;-86
2022/03/01 01:25:03;;;;;;;8.05;4.15;;;4.40;61.20;;;;;;5065243;28;20516;-86
2022/03/01 01:27:29;;;;;;;7.95;4.45;;;4.50;61.30;;;;;;5066919;28;20032;-86
2022/03/01 01:29:55;;;;;;;7.57;3.97;;;4.50;61.30;;;;;;5033122;28;20016;-86
2022/03/01 01:32:20;;;;;;;8.50;4.40;;;4.50;61.30;;;;;;5036461;28;20594;-86
2022/03/01 01:34:46;;;;;;;7.63;3.95;;;4.50;61.30;;;;;;5051342;28;20024;-86
2022/03/01 01:37:12;;;;;;;6.73;3.80;;;4.50;61.40;;;;;;5055466;28;20153;-86
2022/03/01 01:39:37;;;;;;;8.52;4.18;;;4.50;61.40;;;;;;5042469;28;20016;-86
2022/03/01 01:42:03;;;;;;;7.03;4.03;;;4.60;61.60;;;;;;5056242;28;20024;-86
2022/03/01 01:44:30;;;;;;;9.75;4.82;;;4.60;61.40;;;;;;5036123;28;20032;-86
2022/03/01 01:46:56;;;;;;;7.05;4.20;;;4.60;61.50;;;;;;5050562;28;20052;-86
2022/03/01 01:49:22;;;;;;;7.32;3.97;;;4.60;61.50;;;;;;5062060;28;20119;-86
2022/03/01 01:51:48;;;;;;;7.97;4.10;;;4.50;61.40;;;;;;5055523;28;20477;-86
2022/03/01 01:54:14;;;;;;;7.53;4.03;;;4.60;61.60;;;;;;5033033;28;20154;-86
2022/03/01 01:56:40;;;;;;;7.05;4.10;;;4.60;61.60;;;;;;5038493;28;20033;-86
2022/03/01 01:59:06;;;;;;;7.93;4.15;;;4.60;61.80;;;;;;5024481;28;20045;-86
2022/03/01 02:01:32;;;;;;;7.47;3.97;;;4.60;61.80;;;;;;5041961;28;20059;-86
2022/03/01 02:03:59;;;;;;;7.57;4.00;;;4.50;61.80;;;;;;5023200;28;20119;-86
2022/03/01 02:06:26;;;;;;;7.70;4.03;;;4.60;61.90;;;;;;5028900;28;20148;-86
2022/03/01 02:08:51;;;;;;;7.88;3.47;;;4.60;61.90;;;;;;5051426;28;20408;-86
2022/03/01 02:11:17;;;;;;;6.70;4.00;;;4.60;61.60;;;;;;5050962;28;20892;-86
2022/03/01 02:13:43;;;;;;;6.40;3.38;;;4.60;61.60;;;;;;5032313;28;20268;-86
2022/03/01 02:16:09;;;;;;;7.18;3.83;;;4.50;61.60;;;;;;5048827;28;20024;-86
2022/03/01 02:18:36;;;;;;;7.07;3.77;;;4.50;61.90;;;;;;5024985;28;20104;-86
2022/03/01 02:21:02;;;;;;;8.38;4.00;;;4.50;62.00;;;;;;5040682;28;20075;-86
2022/03/01 02:23:27;;;;;;;6.70;3.83;;;4.50;62.00;;;;;;5038353;28;20028;-86
2022/03/01 02:25:53;;;;;;;6.28;3.80;;;4.50;62.00;;;;;;5062654;28;20035;-86
2022/03/01 02:28:19;;;;;;;7.77;3.83;;;4.40;62.00;;;;;;5064778;28;20240;-86
2022/03/01 02:30:44;;;;;;;7.70;4.18;;;4.40;61.90;;;;;;5051846;28;20408;-86
2022/03/01 02:33:10;;;;;;;8.43;3.80;;;4.50;62.10;;;;;;5023904;28;20560;-86
2022/03/01 02:35:36;;;;;;;7.70;3.80;;;4.40;62.10;;;;;;5040946;28;20020;-86
2022/03/01 02:38:02;;;;;;;7.00;3.65;;;4.40;62.20;;;;;;5039048;28;20021;-86
2022/03/01 02:40:29;;;;;;;7.57;3.97;;;4.40;62.20;;;;;;5053125;28;20025;-86
2022/03/01 02:42:55;;;;;;;8.15;4.28;;;4.40;62.30;;;;;;5044493;28;20036;-86
2022/03/01 02:45:21;;;;;;;6.43;3.70;;;4.50;62.40;;;;;;5050072;28;22518;-86
2022/03/01 02:47:46;;;;;;;7.47;4.05;;;4.40;62.30;;;;;;5058107;28;20025;-86
2022/03/01 02:50:13;;;;;;;7.43;3.53;;;4.40;62.30;;;;;;5019693;28;20032;-86
2022/03/01 02:52:39;;;;;;;7.00;3.58;;;4.40;62.30;;;;;;5036572;28;20470;-86
2022/03/01 02:55:06;;;;;;;8.05;3.95;;;4.40;62.30;;;;;;5038228;28;20024;-86
2022/03/01 02:57:31;;;;;;;7.22;3.70;;;4.50;62.40;;;;;;5041461;28;20017;-86
2022/03/01 02:59:57;;;;;;;7.27;4.07;;;4.40;62.40;;;;;;5025495;28;20053;-86
2022/03/01 03:02:23;;;;;;;7.95;4.22;;;4.50;62.40;;;;;;5069811;28;20260;-86
2022/03/01 03:04:49;;;;;;;8.17;3.77;;;4.50;62.50;;;;;;5033113;28;20477;-86
2022/03/01 03:07:15;;;;;;;7.10;3.63;;;4.40;62.50;;;;;;5062662;28;20282;-86
2022/03/01 03:09:40;;;;;;;6.25;3.78;;;4.50;62.50;;;;;;5059742;28;20516;-86
2022/03/01 03:12:08;;;;;;;7.57;4.10;;;4.50;62.50;;;;;;5040726;28;20032;-86
2022/03/01 03:14:34;;;;;;;7.77;4.00;;;4.50;62.60;;;;;;5034943;28;20313;-86
2022/03/01 03:17:00;;;;;;;7.50;3.90;;;4.50;62.60;;;;;;5028417;28;20086;-86
2022/03/01 03:19:26;;;;;;;7.50;3.78;;;4.50;62.70;;;;;;5036932;28;20043;-86
2022/03/01 03:21:52;;;;;;;7.03;3.67;;;4.50;62.70;;;;;;5044867;28;20024;-86
2022/03/01 03:24:19;;;;;;;7.73;3.83;;;4.50;62.80;;;;;;5038447;28;20025;-86
2022/03/01 03:26:45;;;;;;;8.50;3.80;;;4.50;62.90;;;;;;5055016;28;20282;-86
2022/03/01 03:29:12;;;;;;;8.25;3.95;;;4.60;63.00;;;;;;5032849;28;20472;-86
2022/03/01 03:31:40;;;;;;;6.05;3.75;;;4.60;63.10;;;;;;5035740;28;20389;-86
2022/03/01 03:34:10;;;;;;;8.02;3.97;;;4.60;63.10;;;;;;5035111;28;20040;-86
2022/03/01 03:36:37;;;;;;;6.90;3.97;;;4.60;63.10;;;;;;5044203;28;20035;-86
2022/03/01 03:39:05;;;;;;;8.03;4.03;;;4.60;63.10;;;;;;5040618;28;20513;-86
2022/03/01 03:41:31;;;;;;;7.90;3.97;;;4.60;63.20;;;;;;5042437;28;20124;-86
2022/03/01 03:43:57;;;;;;;8.45;4.28;;;4.60;63.30;;;;;;5058264;28;20594;-86
2022/03/01 03:46:22;;;;;;;8.10;3.87;;;4.60;63.40;;;;;;5049235;28;20774;-86
2022/03/01 03:48:48;;;;;;;8.60;4.20;;;4.70;63.50;;;;;;5077644;28;20025;-86
2022/03/01 03:51:15;;;;;;;7.57;4.00;;;4.70;63.60;;;;;;5042365;28;20199;-86
2022/03/01 03:53:41;;;;;;;6.47;3.40;;;4.70;63.60;;;;;;5064866;28;20020;-86
2022/03/01 03:56:07;;;;;;;6.65;3.70;;;4.70;63.70;;;;;;5057031;28;20028;-86
2022/03/01 03:58:32;;;;;;;6.80;3.60;;;4.70;63.50;;;;;;5060414;28;20074;-86
2022/03/01 04:00:58;;;;;;;5.97;3.00;;;4.80;63.40;;;;;;5067848;28;20031;-86
2022/03/01 04:03:24;;;;;;;6.50;3.40;;;4.80;63.30;;;;;;5052507;28;20238;-86
2022/03/01 04:05:50;;;;;;;5.90;3.23;;;4.70;63.20;;;;;;5043399;28;20031;-86
2022/03/01 04:08:17;;;;;;;5.82;3.20;;;4.70;63.40;;;;;;5044003;28;20138;-86
2022/03/01 04:10:46;;;;;;;7.00;3.65;;;4.80;63.40;;;;;;5038966;28;20110;-86
2022/03/01 04:13:12;;;;;;;6.78;3.67;;;4.80;63.70;;;;;;5038226;28;20063;-86
2022/03/01 04:15:38;;;;;;;6.87;3.30;;;4.80;63.70;;;;;;5044964;28;20100;-86
2022/03/01 04:18:04;;;;;;;5.47;2.97;;;4.80;63.80;;;;;;5049906;28;20028;-86
2022/03/01 04:20:30;;;;;;;5.75;3.22;;;4.80;63.80;;;;;;5039804;28;20048;-86
2022/03/01 04:22:56;;;;;;;6.60;3.17;;;4.90;64.50;;;;;;5046081;28;20489;-86
2022/03/01 04:25:22;;;;;;;6.55;3.30;;;4.90;63.90;;;;;;5029707;28;20059;-86
2022/03/01 04:27:48;;;;;;;6.40;3.30;;;4.90;64.00;;;;;;5026405;28;20021;-86
2022/03/01 04:30:15;;;;;;;6.75;3.30;;;4.90;64.00;;;;;;5040850;28;20171;-86
2022/03/01 04:32:42;;;;;;;5.60;2.97;;;4.90;63.80;;;;;;5036931;28;20016;-86
2022/03/01 04:35:09;;;;;;;5.10;2.60;;;4.90;63.60;;;;;;5053254;28;20029;-86
2022/03/01 04:37:39;;;;;;;5.35;2.92;;;4.90;63.40;;;;;;5042910;28;20028;-86
2022/03/01 04:40:06;;;;;;;6.55;3.40;;;4.90;63.40;;;;;;5025753;28;20027;-86
2022/03/01 04:42:32;;;;;;;5.28;2.95;;;4.90;63.60;;;;;;5039013;28;20029;-86
2022/03/01 04:44:59;;;;;;;5.70;3.37;;;4.90;63.50;;;;;;5068869;28;20024;-86
2022/03/01 04:47:25;;;;;;;7.13;3.67;;;4.90;63.50;;;;;;5048618;28;20191;-86
2022/03/01 04:49:50;;;;;;;6.20;3.70;;;4.90;63.70;;;;;;5061689;28;20289;-86
2022/03/01 04:52:16;;;;;;;5.50;3.20;;;4.90;63.90;;;;;;5049655;28;20228;-86
2022/03/01 04:54:42;;;;;;;5.37;3.10;;;4.90;64.00;;;;;;5045666;28;20477;-86
2022/03/01 04:57:08;;;;;;;6.73;3.20;;;4.90;64.00;;;;;;5034998;28;20514;-86
2022/03/01 04:59:34;;;;;;;5.33;3.17;;;4.90;64.20;;;;;;5060048;28;20397;-86
2022/03/01 05:01:59;;;;;;;6.50;3.30;;;4.90;64.00;;;;;;5053405;28;20515;-86
2022/03/01 05:04:25;;;;;;;6.20;3.10;;;4.90;64.00;;;;;;5065108;28;20221;-86
2022/03/01 05:06:51;;;;;;;6.15;3.40;;;4.90;64.20;;;;;;5042032;28;20059;-86
2022/03/01 05:09:17;;;;;;;5.68;3.00;;;4.90;64.20;;;;;;5020910;28;20041;-86
2022/03/01 05:11:43;;;;;;;5.88;2.97;;;5.00;64.30;;;;;;5042931;28;20056;-86
2022/03/01 05:14:09;;;;;;;6.83;3.07;;;4.90;64.10;;;;;;5055383;28;20028;-86
2022/03/01 05:16:34;;;;;;;5.60;3.17;;;4.90;64.10;;;;;;5048578;28;20020;-86
2022/03/01 05:19:00;;;;;;;5.87;3.37;;;4.90;64.20;;;;;;5057859;28;20013;-86
2022/03/01 05:21:26;;;;;;;6.65;3.63;;;5.00;64.30;;;;;;5031775;28;20055;-86
2022/03/01 05:23:52;;;;;;;6.10;3.37;;;4.90;64.30;;;;;;5029035;28;20484;-86
2022/03/01 05:26:18;;;;;;;6.50;3.30;;;5.00;64.40;;;;;;5046171;28;20313;-86
2022/03/01 05:28:44;;;;;;;5.38;3.10;;;4.90;64.30;;;;;;5058801;28;20497;-86
2022/03/01 05:31:10;;;;;;;5.35;3.30;;;4.90;64.40;;;;;;5033965;28;20039;-86
2022/03/01 05:33:36;;;;;;;5.80;3.30;;;4.90;65.20;;;;;;5034642;28;20186;-86
2022/03/01 05:36:02;;;;;;;5.22;3.35;;;4.90;64.50;;;;;;5029848;28;20035;-86
2022/03/01 05:38:28;;;;;;;5.47;3.30;;;4.90;64.70;;;;;;5067753;28;20056;-86
2022/03/01 05:40:54;;;;;;;6.37;3.10;;;4.90;64.70;;;;;;5024195;28;20025;-86
2022/03/01 05:43:20;;;;;;;6.78;3.50;;;4.90;64.70;;;;;;5055120;28;20021;-86
2022/03/01 05:45:45;;;;;;;5.93;3.20;;;4.90;64.70;;;;;;5056654;28;20492;-86
2022/03/01 05:48:11;;;;;;;5.90;3.30;;;4.90;64.70;;;;;;5026669;28;20462;-86
2022/03/01 05:50:37;;;;;;;4.73;3.13;;;4.90;64.70;;;;;;5034677;28;20425;-86
2022/03/01 05:53:02;;;;;;;5.93;3.03;;;5.00;64.90;;;;;;5089765;28;20283;-86
2022/03/01 05:55:29;;;;;;;5.63;3.10;;;5.00;64.90;;;;;;5026412;28;20133;-86
2022/03/01 05:57:54;;;;;;;5.53;3.10;;;5.00;64.90;;;;;;5036312;28;20021;-86
2022/03/01 06:00:21;;;;;;;5.45;3.05;;;4.90;64.90;;;;;;5057596;28;20233;-86
2022/03/01 06:02:49;;;;;;;7.90;3.10;;;4.90;64.70;;;;;;5051482;28;20734;-86
2022/03/01 06:05:16;;;;;;;5.40;3.03;;;4.90;64.50;;;;;;5042183;28;20021;-86
2022/03/01 06:07:42;;;;;;;5.30;3.03;;;4.90;64.40;;;;;;5036714;28;20049;-86
2022/03/01 06:10:09;;;;;;;5.30;2.97;;;4.90;64.30;;;;;;5023443;28;20037;-86
2022/03/01 06:12:35;;;;;;;4.57;2.55;;;4.90;64.30;;;;;;5026982;28;20150;-86
2022/03/01 06:15:01;;;;;;;6.35;2.85;;;4.80;64.30;;;;;;5023524;28;20037;-86
2022/03/01 06:17:27;;;;;;;6.03;3.10;;;4.80;64.30;;;;;;5039704;28;20029;-86
2022/03/01 06:19:52;;;;;;;5.78;3.15;;;4.80;64.40;;;;;;5027861;28;20035;-86
2022/03/01 06:22:20;;;;;;;5.18;2.90;;;4.70;64.40;;;;;;5022474;28;20025;-86
2022/03/01 06:24:46;;;;;;;4.40;2.47;;;4.70;64.40;;;;;;5022476;28;20229;-86
2022/03/01 06:27:12;;;;;;;6.35;2.83;;;4.70;64.10;;;;;;5037804;28;20085;-86
2022/03/01 06:29:38;;;;;;;6.38;3.45;;;4.70;64.00;;;;;;5030952;28;20028;-86
2022/03/01 06:32:05;;;;;;;5.35;3.17;;;4.70;64.00;;;;;;5039882;28;20035;-86
2022/03/01 06:34:31;;;;;;;6.03;3.20;;;4.60;64.00;;;;;;5042708;28;20401;-86
2022/03/01 06:36:57;;;;;;;5.35;2.88;;;4.60;64.20;;;;;;5038948;28;20029;-88
2022/03/01 06:39:23;;;;;;;5.07;2.90;;;4.60;64.30;;;;;;5042295;28;20025;-88
2022/03/01 06:41:50;;;;;;;4.70;2.60;;;4.60;64.40;;;;;;5026325;28;20415;-88
2022/03/01 06:44:16;;;;;;;5.00;2.60;;;4.60;64.30;;;;;;5039067;28;21113;-88
2022/03/01 06:46:42;;;;;;;5.40;2.90;;;4.60;64.30;;;;;;5039361;28;21004;-88
2022/03/01 06:49:08;;;;;;;5.32;2.85;;;4.60;64.20;;;;;;5024800;28;20103;-88
2022/03/01 06:51:34;;;;;;;4.10;2.43;;;4.60;64.20;;;;;;5019483;28;22399;-88
2022/03/01 06:54:00;;;;;;;6.45;2.80;;;4.60;64.40;;;;;;5051625;28;20013;-88
2022/03/01 06:56:26;;;;;;;5.32;3.22;;;4.70;64.50;;;;;;5038034;28;20490;-88
2022/03/01 06:58:53;;;;;;;5.80;3.00;;;4.70;64.60;;;;;;5036128;28;20255;-88
2022/03/01 07:01:19;;;;;;;6.07;2.87;;;4.70;64.80;;;;;;5050571;28;20050;-88
2022/03/01 07:03:45;;;;;;;6.85;2.85;;;4.70;64.90;;;;;;5027009;28;20025;-88
2022/03/01 07:06:11;;;;;;;5.35;2.72;;;4.80;64.90;;;;;;5049350;28;20063;-88
2022/03/01 07:08:37;;;;;;;6.72;3.67;;;4.90;65.00;;;;;;5045707;28;20056;-88
2022/03/01 07:11:03;;;;;;;5.33;3.03;;;4.90;65.20;;;;;;5035987;28;20072;-88
2022/03/01 07:13:29;;;;;;;5.57;2.88;;;5.00;65.40;;;;;;5024499;28;20249;-88
2022/03/01 07:15:54;;;;;;;5.72;2.90;;;5.00;66.20;;;;;;5034402;28;20025;-88
2022/03/01 07:18:20;;;;;;;5.50;2.97;;;5.10;65.50;;;;;;5049948;28;20024;-89
2022/03/01 07:20:47;;;;;;;4.88;2.80;;;5.20;65.60;;;;;;5030617;28;20056;-88
2022/03/01 07:23:13;;;;;;;5.63;2.88;;;5.30;65.60;;;;;;5025923;28;20021;-88
2022/03/01 07:25:39;;;;;;;5.37;2.90;;;5.30;65.50;;;;;;5048272;28;20645;-88
2022/03/01 07:28:06;;;;;;;5.57;2.72;;;5.40;65.60;;;;;;5056305;28;20032;-88
2022/03/01 07:30:32;;;;;;;5.60;2.95;;;5.40;65.60;;;;;;5028234;28;20025;-89
2022/03/01 07:32:59;;;;;;;5.60;2.67;;;5.50;65.60;;;;;;5059430;28;20394;-89
2022/03/01 07:35:25;;;;;;;6.20;2.63;;;5.60;65.60;;;;;;5046368;28;20025;-88
2022/03/01 07:37:52;;;;;;;5.07;2.80;;;5.60;65.60;;;;;;5047028;28;20098;-88
2022/03/01 07:40:20;;;;;;;4.50;2.60;;;5.70;65.50;;;;;;5054592;28;20302;-89
2022/03/01 07:42:45;;;;;;;6.40;2.70;;;5.70;65.40;;;;;;5019700;28;20473;-89
2022/03/01 07:45:12;;;;;;;5.43;2.60;;;5.80;65.30;;;;;;5015997;28;20761;-89
2022/03/01 07:47:37;;;;;;;5.50;2.73;;;5.80;65.40;;;;;;5048556;28;20060;-89
2022/03/01 07:50:05;;;;;;;5.50;2.55;;;5.80;65.40;;;;;;5014435;28;20109;-89
2022/03/01 07:52:30;;;;;;;5.45;2.60;;;5.80;65.40;;;;;;5047455;28;20033;-89
2022/03/01 07:54:56;;;;;;;4.20;2.40;;;5.90;65.40;;;;;;5027864;28;20431;-89
2022/03/01 07:57:22;;;;;;;4.57;2.70;;;5.90;65.50;;;;;;5020087;28;22519;-89
2022/03/01 07:59:47;;;;;;;4.70;2.43;;;6.00;65.70;;;;;;5046874;28;20429;-89
2022/03/01 08:02:13;;;;;;;5.32;2.53;;;6.00;65.90;;;;;;5031058;28;20595;-89
2022/03/01 08:04:41;;;;;;;5.23;2.47;;;6.10;65.80;;;;;;5025279;28;20016;-89
2022/03/01 08:07:09;;;;;;;4.10;2.42;;;6.10;65.70;;;;;;5033776;28;20109;-89
2022/03/01 08:09:36;;;;;;;4.47;2.40;;;6.20;65.70;;;;;;5027861;28;20524;-89
2022/03/01 08:12:02;;;;;;;4.40;2.55;;;6.30;65.70;;;;;;5040391;28;20390;-89
2022/03/01 08:14:30;;;;;;;4.70;2.77;;;6.30;65.70;;;;;;5021330;28;20117;-89
2022/03/01 08:16:56;;;;;;;4.40;2.50;;;6.30;65.80;;;;;;5030323;28;20083;-89
2022/03/01 08:19:22;;;;;;;5.78;2.83;;;6.40;65.70;;;;;;5021985;28;20232;-89
2022/03/01 08:21:48;;;;;;;5.55;3.05;;;6.40;65.60;;;;;;5033366;28;20530;-89
2022/03/01 08:24:13;;;;;;;5.50;2.67;;;6.50;65.60;;;;;;5024896;28;20862;-89
2022/03/01 08:26:39;;;;;;;5.93;2.80;;;6.60;65.70;;;;;;5051524;28;20021;-89
2022/03/01 08:29:05;;;;;;;4.43;2.43;;;6.60;65.70;;;;;;5033987;28;20093;-89
2022/03/01 08:31:30;;;;;;;5.25;2.53;;;6.70;65.80;;;;;;5014265;28;20024;-89
2022/03/01 08:33:59;;;;;;;6.13;3.40;;;6.80;65.80;;;;;;5035184;28;20025;-89
2022/03/01 08:36:26;;;;;;;5.28;2.92;;;6.80;65.80;;;;;;5048722;28;20048;-89
2022/03/01 08:38:52;;;;;;;9.60;3.38;;;6.90;65.80;;;;;;5023652;28;20025;-89
2022/03/01 08:41:17;;;;;;;5.65;2.90;;;7.00;65.90;;;;;;5020431;28;20429;-89
2022/03/01 08:43:43;;;;;;;5.37;3.00;;;7.10;66.00;;;;;;5033748;28;20025;-89
2022/03/01 08:46:11;;;;;;;5.00;2.90;;;7.20;66.10;;;;;;5021688;28;20290;-89
2022/03/01 08:48:36;;;;;;;5.30;3.00;;;7.30;66.20;;;;;;5039425;28;20028;-89
2022/03/01 08:51:02;;;;;;;4.87;2.50;;;7.40;66.20;;;;;;5016105;28;20029;-89
2022/03/01 08:53:28;;;;;;;5.68;2.97;;;7.50;66.20;;;;;;5024707;28;20040;-89
2022/03/01 08:55:53;;;;;;;4.93;3.10;;;7.60;66.00;;;;;;5019391;28;20056;-89
2022/03/01 08:58:19;;;;;;;6.00;3.20;;;7.60;65.90;;;;;;5043232;28;20274;-89
2022/03/01 09:00:46;;;;;;;4.57;2.70;;;7.70;65.90;;;;;;5021711;28;20020;-89
2022/03/01 09:03:11;;;;;;;5.22;2.78;;;7.80;65.90;;;;;;5028840;28;20683;-89
2022/03/01 09:05:37;;;;;;;5.03;2.83;;;7.90;65.90;;;;;;5039762;28;20193;-89
2022/03/01 09:08:04;;;;;;;4.15;2.70;;;8.00;65.90;;;;;;5044836;28;20118;-89
2022/03/01 09:10:30;;;;;;;5.17;2.83;;;8.20;65.90;;;;;;5032793;28;20120;-89
2022/03/01 09:12:57;;;;;;;5.28;3.05;;;8.30;65.90;;;;;;5034963;28;20017;-89
2022/03/01 09:15:25;;;;;;;5.88;3.28;;;8.40;65.90;;;;;;5018834;28;20028;-89
2022/03/01 09:17:51;;;;;;;7.35;3.42;;;8.50;65.90;;;;;;5032018;28;20044;-89
2022/03/01 09:20:17;;;;;;;5.80;3.58;;;8.60;65.90;;;;;;5027401;28;20661;-89
2022/03/01 09:22:43;;;;;;;5.50;3.10;;;8.80;65.80;;;;;;5022965;28;20474;-89
2022/03/01 09:25:09;;;;;;;4.88;2.95;;;8.90;65.70;;;;;;5042794;28;20036;-89
2022/03/01 09:27:35;;;;;;;6.15;3.38;;;9.00;65.60;;;;;;5054194;28;20028;-89
2022/03/01 09:30:02;;;;;;;6.00;3.10;;;9.00;65.40;;;;;;5053818;28;20028;-89
2022/03/01 09:32:28;;;;;;;6.13;3.47;;;9.10;65.40;;;;;;5042256;28;20041;-89
2022/03/01 09:34:55;;;;;;;7.50;3.73;;;9.20;65.30;;;;;;5038951;28;20499;-89
2022/03/01 09:37:22;;;;;;;5.33;2.90;;;9.30;65.10;;;;;;5028301;28;20748;-89
2022/03/01 09:39:47;;;;;;;5.38;3.47;;;9.30;65.20;;;;;;5046651;28;20021;-89
2022/03/01 09:42:13;;;;;;;4.88;3.03;;;9.40;65.00;;;;;;5032871;28;20032;-89
2022/03/01 09:44:40;;;;;;;4.93;2.97;;;9.50;65.20;;;;;;5041299;28;20534;-89
2022/03/01 09:47:05;;;;;;;6.13;3.20;;;9.60;65.00;;;;;;5019856;28;20226;-89
2022/03/01 09:49:31;;;;;;;5.20;3.20;;;9.70;65.10;;;;;;5023358;28;20036;-89
2022/03/01 09:51:57;;;;;;;5.93;3.13;;;9.80;65.10;;;;;;5029082;28;20033;-89
2022/03/01 09:54:23;;;;;;;5.82;3.38;;;9.80;65.10;;;;;;5041192;28;20082;-89
2022/03/01 09:56:49;;;;;;;5.03;2.95;;;9.90;64.90;;;;;;5039419;28;20037;-87
2022/03/01 09:59:15;;;;;;;5.57;3.03;;;10.00;64.80;;;;;;5038160;28;20040;-87
2022/03/01 10:01:52;;;;;;;5.25;2.78;;;10.10;64.80;;;;;;5023816;28;20032;-87
2022/03/01 10:04:18;;;;;;;5.95;3.22;;;10.20;64.40;;;;;;5040247;28;20213;-87
2022/03/01 10:06:46;;;;;;;5.88;3.08;;;10.30;64.70;;;;;;5021461;28;20032;-87
2022/03/01 10:09:20;;;;;;;5.55;3.28;;;10.30;64.50;;;;;;5026895;28;20658;-87
2022/03/01 10:11:47;;;;;;;6.23;3.67;;;10.40;64.20;;;;;;5073552;28;20036;-87
2022/03/01 10:14:14;;;;;;;7.13;3.78;;;10.50;64.10;;;;;;5038140;28;22578;-87
2022/03/01 10:16:44;;;;;;;6.22;3.47;;;10.50;63.90;;;;;;5026448;28;20031;-87
2022/03/01 10:19:16;;;;;;;5.68;3.30;;;10.50;63.40;;;;;;5033384;28;20048;-87
2022/03/01 10:21:42;;;;;;;6.25;3.33;;;10.60;63.20;;;;;;5044409;28;20029;-87
2022/03/01 10:24:08;;;;;;;5.53;3.30;;;10.60;63.30;;;;;;5010494;28;20714;-87
2022/03/01 10:26:39;;;;;;;6.53;3.53;;;10.60;63.40;;;;;;5037916;28;20063;-87
2022/03/01 10:29:06;;;;;;;6.05;3.55;;;10.70;63.40;;;;;;5026250;28;20039;-87
2022/03/01 10:31:36;;;;;;;5.90;3.35;;;10.60;63.10;;;;;;5036814;28;20491;-87
2022/03/01 10:34:05;;;;;;;6.30;3.57;;;10.70;62.90;;;;;;5042003;28;20020;-87
2022/03/01 10:36:46;;;;;;;7.18;3.70;;;10.70;63.00;;;;;;5049102;28;20462;-87
2022/03/01 10:39:15;;;;;;;6.03;3.10;;;10.70;62.90;;;;;;5019326;28;21285;-87
2022/03/01 10:41:43;;;;;;;6.10;3.40;;;10.70;62.90;;;;;;5037574;28;20531;-87
2022/03/01 10:44:17;;;;;;;5.85;3.03;;;10.70;62.80;;;;;;5029538;28;20025;-87
2022/03/01 10:46:50;;;;;;;7.10;3.47;;;10.70;62.70;;;;;;5038971;28;20473;-87
2022/03/01 10:49:20;;;;;;;5.60;3.25;;;10.70;62.60;;;;;;5042112;28;20028;-87
2022/03/01 10:51:53;;;;;;;5.80;3.05;;;10.80;63.30;;;;;;5041398;28;20078;-87
2022/03/01 10:54:31;;;;;;;5.20;3.05;;;10.80;62.80;;;;;;5019749;28;20056;-87
2022/03/01 10:56:57;;;;;;;5.88;3.30;;;10.90;62.60;;;;;;5067981;28;20505;-87
2022/03/01 10:59:25;;;;;;;5.73;3.43;;;10.90;63.10;;;;;;5050575;28;20494;-87
2022/03/01 11:01:51;;;;;;;5.82;3.25;;;11.00;63.10;;;;;;5012798;28;20373;-87
2022/03/01 11:04:18;;;;;;;6.30;3.55;;;11.10;63.10;;;;;;5034472;28;20024;-87
2022/03/01 11:06:46;;;;;;;6.47;3.50;;;11.20;63.10;;;;;;5015224;28;20463;-87
2022/03/01 11:09:13;;;;;;;5.80;3.33;;;11.20;63.00;;;;;;5017990;28;20074;-87
2022/03/01 11:11:41;;;;;;;6.10;3.27;;;11.30;63.00;;;;;;5051484;28;20484;-87
2022/03/01 11:14:09;;;;;;;6.53;3.80;;;11.40;63.60;;;;;;5067921;28;20143;-87
2022/03/01 11:17:12;;;;;;;6.72;3.60;;;11.50;62.70;;;;;;5038645;28;20040;-87
2022/03/01 11:19:52;;;;;;;6.43;3.38;;;11.50;61.50;;;;;;5032337;28;20116;-87
2022/03/01 11:22:24;;;;;;;6.45;3.65;;;11.60;61.80;;;;;;5036275;28;20080;-87
2022/03/01 11:24:51;;;;;;;6.50;3.43;;;11.60;61.80;;;;;;5051519;28;20043;-87
2022/03/01 11:27:22;;;;;;;6.82;3.30;;;11.70;62.00;;;;;;5046464;28;20131;-87
2022/03/01 11:29:49;;;;;;;6.63;3.67;;;11.60;61.40;;;;;;5047664;28;20036;-87
2022/03/01 11:32:22;;;;;;;5.75;3.22;;;11.70;61.50;;;;;;5073687;28;20028;-87
2022/03/01 11:35:00;;;;;;;6.22;3.70;;;11.60;61.10;;;;;;5063806;28;20025;-87
2022/03/01 11:37:26;;;;;;;6.17;2.87;;;11.60;60.50;;;;;;5043408;28;20059;-87
2022/03/01 11:40:00;;;;;;;7.47;3.55;;;11.60;61.20;;;;;;5024655;28;20116;-87
2022/03/01 11:42:31;;;;;;;7.88;3.47;;;11.60;61.00;;;;;;5021896;28;20059;-87
2022/03/01 11:44:57;;;;;;;6.00;3.55;;;11.60;61.20;;;;;;5042032;28;20446;-89
2022/03/01 11:47:28;;;;;;;5.77;3.40;;;11.60;61.40;;;;;;5037792;28;20388;-88
2022/03/01 11:49:54;;;;;;;5.93;3.33;;;11.60;61.50;;;;;;5049964;28;20052;-89
2022/03/01 11:52:25;;;;;;;7.32;3.83;;;11.60;61.60;;;;;;5045590;28;20037;-89
2022/03/01 11:54:55;;;;;;;5.50;3.07;;;11.70;61.70;;;;;;5040003;28;20028;-89
2022/03/01 11:57:27;;;;;;;7.00;3.55;;;11.70;62.50;;;;;;5042355;28;20039;-89
2022/03/01 11:59:57;;;;;;;8.80;3.58;;;11.80;61.80;;;;;;5021075;28;20028;-89
2022/03/01 12:02:27;;;;;;;7.45;3.63;;;11.90;62.10;;;;;;5050054;28;20464;-87
2022/03/01 12:04:55;;;;;;;5.93;3.53;;;12.00;62.00;;;;;;5025354;28;20139;-87
2022/03/01 12:07:24;;;;;;;7.00;3.60;;;12.10;62.30;;;;;;5030882;28;20025;-87
2022/03/01 12:09:58;;;;;;;7.35;4.22;;;12.20;62.00;;;;;;5007331;28;20045;-87
2022/03/01 12:12:43;;;;;;;6.80;3.92;;;12.30;61.60;;;;;;5029402;28;20028;-87
2022/03/01 12:15:11;;;;;;;9.18;4.25;;;12.30;60.60;;;;;;5031873;28;20289;-87
2022/03/01 12:17:55;;;;;;;7.05;3.78;;;12.40;61.30;;;;;;5068410;28;20474;-87
2022/03/01 12:20:22;;;;;;;9.50;3.80;;;12.40;60.60;;;;;;5044998;28;20021;-87
2022/03/01 12:22:53;;;;;;;6.25;3.30;;;12.50;61.10;;;;;;5046980;28;20028;-87
2022/03/01 12:25:19;;;;;;;5.78;3.65;;;12.50;60.70;;;;;;5030617;28;20112;-87
2022/03/01 12:27:48;;;;;;;7.53;3.83;;;12.60;61.00;;;;;;5035186;28;20482;-87
2022/03/01 12:30:17;;;;;;;7.30;3.72;;;12.60;60.60;;;;;;5049841;28;20335;-87
2022/03/01 12:32:49;;;;;;;7.43;3.50;;;12.60;60.60;;;;;;5042075;28;20029;-87
2022/03/01 12:35:15;;;;;;;7.32;3.58;;;12.70;60.30;;;;;;5023054;28;20221;-87
2022/03/01 12:37:41;;;;;;;6.30;3.72;;;12.70;60.70;;;;;;5044314;28;20056;-87
2022/03/01 12:40:07;;;;;;;6.10;3.90;;;12.80;60.70;;;;;;5018768;28;20557;-87
2022/03/01 12:42:35;;;;;;;7.00;3.95;;;12.80;60.50;;;;;;5050301;28;20033;-87
2022/03/01 12:45:00;;;;;;;6.97;3.70;;;12.80;60.20;;;;;;5060546;28;20271;-87
2022/03/01 12:47:26;;;;;;;6.33;3.60;;;12.90;60.20;;;;;;5029887;28;20025;-89
2022/03/01 12:49:51;;;;;;;5.75;3.53;;;12.90;60.20;;;;;;5027638;28;20505;-89
2022/03/01 12:52:20;;;;;;;7.53;4.00;;;13.00;60.00;;;;;;5023689;28;20208;-87
2022/03/01 12:54:48;;;;;;;7.53;3.90;;;13.10;60.10;;;;;;5025074;28;20127;-87
2022/03/01 12:57:14;;;;;;;7.40;4.25;;;13.20;60.50;;;;;;5043658;28;20544;-87